sensor_id;sensor_type;location;lat;lon;timestamp;P1;durP1;ratioP1;P2;durP2;ratioP2
79438;SDS011;68889;48.232;10.110;2024-01-07T00:01:03;14.30;;;9.43;;
79438;SDS011;68889;48.232;10.110;2024-01-07T00:03:32;13.80;;;8.68;;
79438;SDS011;68889;48.232;10.110;2024-01-07T00:05:58;12.55;;;7.88;;
79438;SDS011;68889;48.232;10.110;2024-01-07T00:08:24;11.95;;;7.75;;
79438;SDS011;68889;48.232;10.110;2024-01-07T00:10:50;15.48;;;8.68;;
79438;SDS011;68889;48.232;10.110;2024-01-07T00:13:16;11.63;;;7.50;;
79438;SDS011;68889;48.232;10.110;2024-01-07T00:15:42;13.90;;;8.32;;
79438;SDS011;68889;48.232;10.110;2024-01-07T00:18:08;12.30;;;7.95;;
79438;SDS011;68889;48.232;10.110;2024-01-07T00:20:34;13.40;;;8.23;;
79438;SDS011;68889;48.232;10.110;2024-01-07T00:23:00;11.80;;;7.75;;
79438;SDS011;68889;48.232;10.110;2024-01-07T00:25:26;12.68;;;7.85;;
79438;SDS011;68889;48.232;10.110;2024-01-07T00:27:52;10.38;;;6.95;;
79438;SDS011;68889;48.232;10.110;2024-01-07T00:30:20;10.85;;;8.02;;
79438;SDS011;68889;48.232;10.110;2024-01-07T00:32:48;11.35;;;7.72;;
79438;SDS011;68889;48.232;10.110;2024-01-07T00:35:16;11.60;;;7.88;;
79438;SDS011;68889;48.232;10.110;2024-01-07T00:37:44;12.10;;;8.43;;
79438;SDS011;68889;48.232;10.110;2024-01-07T00:40:10;12.15;;;8.13;;
79438;SDS011;68889;48.232;10.110;2024-01-07T00:42:36;12.30;;;8.13;;
79438;SDS011;68889;48.232;10.110;2024-01-07T00:45:03;15.10;;;8.88;;
79438;SDS011;68889;48.232;10.110;2024-01-07T00:47:30;11.65;;;7.95;;
79438;SDS011;68889;48.232;10.110;2024-01-07T00:49:56;13.38;;;8.27;;
79438;SDS011;68889;48.232;10.110;2024-01-07T00:52:22;11.30;;;6.97;;
79438;SDS011;68889;48.232;10.110;2024-01-07T00:54:49;12.57;;;7.45;;
79438;SDS011;68889;48.232;10.110;2024-01-07T00:57:15;11.70;;;7.57;;
79438;SDS011;68889;48.232;10.110;2024-01-07T00:59:41;12.23;;;7.50;;
79438;SDS011;68889;48.232;10.110;2024-01-07T01:02:06;11.63;;;7.32;;
79438;SDS011;68889;48.232;10.110;2024-01-07T01:04:32;11.52;;;7.35;;
79438;SDS011;68889;48.232;10.110;2024-01-07T01:06:58;13.07;;;8.32;;
79438;SDS011;68889;48.232;10.110;2024-01-07T01:09:24;15.32;;;8.00;;
79438;SDS011;68889;48.232;10.110;2024-01-07T01:11:49;11.88;;;7.30;;
79438;SDS011;68889;48.232;10.110;2024-01-07T01:14:15;12.68;;;7.43;;
79438;SDS011;68889;48.232;10.110;2024-01-07T01:16:41;10.95;;;7.10;;
79438;SDS011;68889;48.232;10.110;2024-01-07T01:19:07;11.40;;;6.97;;
79438;SDS011;68889;48.232;10.110;2024-01-07T01:23:59;10.73;;;6.85;;
79438;SDS011;68889;48.232;10.110;2024-01-07T01:26:25;11.02;;;6.80;;
79438;SDS011;68889;48.232;10.110;2024-01-07T01:28:51;11.90;;;7.13;;
79438;SDS011;68889;48.232;10.110;2024-01-07T01:31:16;12.70;;;7.15;;
79438;SDS011;68889;48.232;10.110;2024-01-07T01:33:42;13.20;;;6.78;;
79438;SDS011;68889;48.232;10.110;2024-01-07T01:36:08;9.90;;;6.20;;
79438;SDS011;68889;48.232;10.110;2024-01-07T01:38:34;11.60;;;6.78;;
79438;SDS011;68889;48.232;10.110;2024-01-07T01:41:00;11.88;;;6.68;;
79438;SDS011;68889;48.232;10.110;2024-01-07T01:43:27;11.68;;;7.10;;
79438;SDS011;68889;48.232;10.110;2024-01-07T01:45:54;9.13;;;5.75;;
79438;SDS011;68889;48.232;10.110;2024-01-07T01:48:22;10.85;;;6.18;;
79438;SDS011;68889;48.232;10.110;2024-01-07T01:50:49;12.90;;;7.13;;
79438;SDS011;68889;48.232;10.110;2024-01-07T01:53:15;11.07;;;6.70;;
79438;SDS011;68889;48.232;10.110;2024-01-07T01:55:42;11.05;;;6.72;;
79438;SDS011;68889;48.232;10.110;2024-01-07T02:00:34;8.90;;;5.32;;
79438;SDS011;68889;48.232;10.110;2024-01-07T02:03:00;11.30;;;6.35;;
79438;SDS011;68889;48.232;10.110;2024-01-07T02:05:26;10.90;;;6.38;;
79438;SDS011;68889;48.232;10.110;2024-01-07T02:07:53;10.20;;;6.35;;
79438;SDS011;68889;48.232;10.110;2024-01-07T02:10:21;12.07;;;7.38;;
79438;SDS011;68889;48.232;10.110;2024-01-07T02:12:47;10.88;;;6.93;;
79438;SDS011;68889;48.232;10.110;2024-01-07T02:15:14;11.27;;;6.78;;
79438;SDS011;68889;48.232;10.110;2024-01-07T02:17:40;11.93;;;6.82;;
79438;SDS011;68889;48.232;10.110;2024-01-07T02:20:06;11.57;;;6.93;;
79438;SDS011;68889;48.232;10.110;2024-01-07T02:22:33;12.52;;;7.15;;
79438;SDS011;68889;48.232;10.110;2024-01-07T02:24:59;11.35;;;7.28;;
79438;SDS011;68889;48.232;10.110;2024-01-07T02:27:25;9.27;;;6.15;;
79438;SDS011;68889;48.232;10.110;2024-01-07T02:29:51;10.98;;;6.63;;
79438;SDS011;68889;48.232;10.110;2024-01-07T02:32:17;14.02;;;7.63;;
79438;SDS011;68889;48.232;10.110;2024-01-07T02:34:43;11.60;;;7.35;;
79438;SDS011;68889;48.232;10.110;2024-01-07T02:37:09;11.77;;;7.53;;
79438;SDS011;68889;48.232;10.110;2024-01-07T02:39:35;11.80;;;7.43;;
79438;SDS011;68889;48.232;10.110;2024-01-07T02:42:02;14.23;;;8.45;;
79438;SDS011;68889;48.232;10.110;2024-01-07T02:44:28;17.38;;;9.13;;
79438;SDS011;68889;48.232;10.110;2024-01-07T02:46:54;16.35;;;9.05;;
79438;SDS011;68889;48.232;10.110;2024-01-07T02:49:19;13.82;;;9.13;;
79438;SDS011;68889;48.232;10.110;2024-01-07T02:51:45;11.95;;;7.93;;
79438;SDS011;68889;48.232;10.110;2024-01-07T02:54:14;13.40;;;8.15;;
79438;SDS011;68889;48.232;10.110;2024-01-07T02:56:42;11.73;;;7.75;;
79438;SDS011;68889;48.232;10.110;2024-01-07T02:59:08;13.27;;;8.15;;
79438;SDS011;68889;48.232;10.110;2024-01-07T03:01:34;17.75;;;10.48;;
79438;SDS011;68889;48.232;10.110;2024-01-07T03:04:05;15.45;;;8.88;;
79438;SDS011;68889;48.232;10.110;2024-01-07T03:06:32;16.15;;;9.32;;
79438;SDS011;68889;48.232;10.110;2024-01-07T03:08:58;13.43;;;9.00;;
79438;SDS011;68889;48.232;10.110;2024-01-07T03:11:24;14.88;;;9.40;;
79438;SDS011;68889;48.232;10.110;2024-01-07T03:13:50;13.15;;;8.13;;
79438;SDS011;68889;48.232;10.110;2024-01-07T03:16:20;13.98;;;8.70;;
79438;SDS011;68889;48.232;10.110;2024-01-07T03:18:46;14.32;;;8.95;;
79438;SDS011;68889;48.232;10.110;2024-01-07T03:21:18;11.95;;;7.53;;
79438;SDS011;68889;48.232;10.110;2024-01-07T03:23:45;16.27;;;8.35;;
79438;SDS011;68889;48.232;10.110;2024-01-07T03:26:12;13.27;;;8.13;;
79438;SDS011;68889;48.232;10.110;2024-01-07T03:28:38;13.80;;;8.27;;
79438;SDS011;68889;48.232;10.110;2024-01-07T03:31:08;14.27;;;9.30;;
79438;SDS011;68889;48.232;10.110;2024-01-07T03:33:34;15.45;;;9.02;;
79438;SDS011;68889;48.232;10.110;2024-01-07T03:36:01;15.00;;;9.15;;
79438;SDS011;68889;48.232;10.110;2024-01-07T03:38:34;13.88;;;8.32;;
79438;SDS011;68889;48.232;10.110;2024-01-07T03:41:01;13.70;;;8.18;;
79438;SDS011;68889;48.232;10.110;2024-01-07T03:43:27;13.85;;;8.50;;
79438;SDS011;68889;48.232;10.110;2024-01-07T03:45:53;14.88;;;8.50;;
79438;SDS011;68889;48.232;10.110;2024-01-07T03:48:19;12.82;;;7.50;;
79438;SDS011;68889;48.232;10.110;2024-01-07T03:50:46;13.80;;;8.52;;
79438;SDS011;68889;48.232;10.110;2024-01-07T03:55:38;15.32;;;9.20;;
79438;SDS011;68889;48.232;10.110;2024-01-07T03:58:05;13.65;;;8.57;;
79438;SDS011;68889;48.232;10.110;2024-01-07T04:00:31;15.00;;;8.52;;
79438;SDS011;68889;48.232;10.110;2024-01-07T04:02:57;13.45;;;9.20;;
79438;SDS011;68889;48.232;10.110;2024-01-07T04:05:23;16.10;;;9.07;;
79438;SDS011;68889;48.232;10.110;2024-01-07T04:07:49;14.38;;;9.00;;
79438;SDS011;68889;48.232;10.110;2024-01-07T04:10:16;11.48;;;7.93;;
79438;SDS011;68889;48.232;10.110;2024-01-07T04:12:42;13.88;;;8.45;;
79438;SDS011;68889;48.232;10.110;2024-01-07T04:15:08;15.40;;;9.35;;
79438;SDS011;68889;48.232;10.110;2024-01-07T04:17:34;11.80;;;7.95;;
79438;SDS011;68889;48.232;10.110;2024-01-07T04:20:00;11.70;;;7.78;;
79438;SDS011;68889;48.232;10.110;2024-01-07T04:22:26;14.05;;;8.77;;
79438;SDS011;68889;48.232;10.110;2024-01-07T04:24:52;16.45;;;10.05;;
79438;SDS011;68889;48.232;10.110;2024-01-07T04:27:18;11.80;;;7.05;;
79438;SDS011;68889;48.232;10.110;2024-01-07T04:29:44;12.57;;;8.10;;
79438;SDS011;68889;48.232;10.110;2024-01-07T04:32:09;15.10;;;8.75;;
79438;SDS011;68889;48.232;10.110;2024-01-07T04:34:35;10.00;;;7.55;;
79438;SDS011;68889;48.232;10.110;2024-01-07T04:37:01;15.85;;;9.10;;
79438;SDS011;68889;48.232;10.110;2024-01-07T04:39:27;14.25;;;8.45;;
79438;SDS011;68889;48.232;10.110;2024-01-07T04:41:53;12.55;;;7.63;;
79438;SDS011;68889;48.232;10.110;2024-01-07T04:44:19;12.43;;;7.88;;
79438;SDS011;68889;48.232;10.110;2024-01-07T04:46:47;12.85;;;7.95;;
79438;SDS011;68889;48.232;10.110;2024-01-07T04:49:14;13.75;;;8.73;;
79438;SDS011;68889;48.232;10.110;2024-01-07T04:51:40;12.18;;;7.85;;
79438;SDS011;68889;48.232;10.110;2024-01-07T04:54:05;15.75;;;8.75;;
79438;SDS011;68889;48.232;10.110;2024-01-07T04:56:34;13.30;;;8.48;;
79438;SDS011;68889;48.232;10.110;2024-01-07T04:59:00;13.77;;;8.02;;
79438;SDS011;68889;48.232;10.110;2024-01-07T05:01:25;12.32;;;8.55;;
79438;SDS011;68889;48.232;10.110;2024-01-07T05:03:51;11.82;;;8.20;;
79438;SDS011;68889;48.232;10.110;2024-01-07T05:06:17;12.75;;;8.70;;
79438;SDS011;68889;48.232;10.110;2024-01-07T05:08:43;12.23;;;7.93;;
79438;SDS011;68889;48.232;10.110;2024-01-07T05:11:09;13.75;;;8.68;;
79438;SDS011;68889;48.232;10.110;2024-01-07T05:13:35;14.48;;;8.25;;
79438;SDS011;68889;48.232;10.110;2024-01-07T05:16:02;16.83;;;9.15;;
79438;SDS011;68889;48.232;10.110;2024-01-07T05:18:28;11.27;;;7.65;;
79438;SDS011;68889;48.232;10.110;2024-01-07T05:20:54;15.25;;;9.93;;
79438;SDS011;68889;48.232;10.110;2024-01-07T05:23:20;14.80;;;8.65;;
79438;SDS011;68889;48.232;10.110;2024-01-07T05:25:46;15.18;;;9.02;;
79438;SDS011;68889;48.232;10.110;2024-01-07T05:28:12;11.98;;;8.02;;
79438;SDS011;68889;48.232;10.110;2024-01-07T05:30:38;13.70;;;7.95;;
79438;SDS011;68889;48.232;10.110;2024-01-07T05:33:05;13.70;;;9.45;;
79438;SDS011;68889;48.232;10.110;2024-01-07T05:35:31;14.25;;;8.20;;
79438;SDS011;68889;48.232;10.110;2024-01-07T05:37:57;14.48;;;9.13;;
79438;SDS011;68889;48.232;10.110;2024-01-07T05:40:24;12.45;;;8.77;;
79438;SDS011;68889;48.232;10.110;2024-01-07T05:42:50;13.45;;;8.77;;
79438;SDS011;68889;48.232;10.110;2024-01-07T05:45:16;14.30;;;9.35;;
79438;SDS011;68889;48.232;10.110;2024-01-07T05:47:42;15.02;;;9.50;;
79438;SDS011;68889;48.232;10.110;2024-01-07T05:50:08;15.80;;;9.43;;
79438;SDS011;68889;48.232;10.110;2024-01-07T05:52:40;16.25;;;9.98;;
79438;SDS011;68889;48.232;10.110;2024-01-07T05:57:36;14.68;;;8.55;;
79438;SDS011;68889;48.232;10.110;2024-01-07T06:00:02;15.65;;;9.77;;
79438;SDS011;68889;48.232;10.110;2024-01-07T06:02:34;16.10;;;9.07;;
79438;SDS011;68889;48.232;10.110;2024-01-07T06:05:03;18.10;;;10.45;;
79438;SDS011;68889;48.232;10.110;2024-01-07T06:07:30;14.15;;;9.57;;
79438;SDS011;68889;48.232;10.110;2024-01-07T06:09:56;14.40;;;9.95;;
79438;SDS011;68889;48.232;10.110;2024-01-07T06:12:22;16.23;;;10.25;;
79438;SDS011;68889;48.232;10.110;2024-01-07T06:14:50;17.98;;;10.95;;
79438;SDS011;68889;48.232;10.110;2024-01-07T06:17:16;18.38;;;10.95;;
79438;SDS011;68889;48.232;10.110;2024-01-07T06:19:41;16.20;;;10.23;;
79438;SDS011;68889;48.232;10.110;2024-01-07T06:22:07;18.85;;;11.73;;
79438;SDS011;68889;48.232;10.110;2024-01-07T06:24:33;17.25;;;10.85;;
79438;SDS011;68889;48.232;10.110;2024-01-07T06:26:59;18.02;;;10.70;;
79438;SDS011;68889;48.232;10.110;2024-01-07T06:29:25;17.50;;;10.50;;
79438;SDS011;68889;48.232;10.110;2024-01-07T06:31:51;18.17;;;11.75;;
79438;SDS011;68889;48.232;10.110;2024-01-07T06:34:16;21.65;;;12.15;;
79438;SDS011;68889;48.232;10.110;2024-01-07T06:36:44;20.42;;;11.60;;
79438;SDS011;68889;48.232;10.110;2024-01-07T06:39:10;16.67;;;10.98;;
79438;SDS011;68889;48.232;10.110;2024-01-07T06:41:36;16.42;;;10.18;;
79438;SDS011;68889;48.232;10.110;2024-01-07T06:44:05;18.05;;;10.57;;
79438;SDS011;68889;48.232;10.110;2024-01-07T06:46:38;19.27;;;11.07;;
79438;SDS011;68889;48.232;10.110;2024-01-07T06:49:03;18.65;;;10.65;;
79438;SDS011;68889;48.232;10.110;2024-01-07T06:51:33;20.05;;;11.85;;
79438;SDS011;68889;48.232;10.110;2024-01-07T06:53:59;18.60;;;11.98;;
79438;SDS011;68889;48.232;10.110;2024-01-07T06:56:25;18.85;;;12.38;;
79438;SDS011;68889;48.232;10.110;2024-01-07T06:58:51;20.80;;;12.10;;
79438;SDS011;68889;48.232;10.110;2024-01-07T07:01:23;20.05;;;12.13;;
79438;SDS011;68889;48.232;10.110;2024-01-07T07:03:52;21.15;;;13.00;;
79438;SDS011;68889;48.232;10.110;2024-01-07T07:06:17;21.85;;;11.70;;
79438;SDS011;68889;48.232;10.110;2024-01-07T07:08:43;19.80;;;10.75;;
79438;SDS011;68889;48.232;10.110;2024-01-07T07:11:13;20.17;;;12.15;;
79438;SDS011;68889;48.232;10.110;2024-01-07T07:13:42;22.27;;;12.50;;
79438;SDS011;68889;48.232;10.110;2024-01-07T07:16:15;19.75;;;11.90;;
79438;SDS011;68889;48.232;10.110;2024-01-07T07:18:44;20.00;;;12.57;;
79438;SDS011;68889;48.232;10.110;2024-01-07T07:21:16;20.75;;;12.70;;
79438;SDS011;68889;48.232;10.110;2024-01-07T07:23:44;19.00;;;10.98;;
79438;SDS011;68889;48.232;10.110;2024-01-07T07:26:10;20.55;;;12.32;;
79438;SDS011;68889;48.232;10.110;2024-01-07T07:28:36;20.70;;;12.38;;
79438;SDS011;68889;48.232;10.110;2024-01-07T07:31:02;20.65;;;12.48;;
79438;SDS011;68889;48.232;10.110;2024-01-07T07:33:28;21.02;;;12.65;;
79438;SDS011;68889;48.232;10.110;2024-01-07T07:35:55;21.52;;;12.45;;
79438;SDS011;68889;48.232;10.110;2024-01-07T07:38:21;19.63;;;12.50;;
79438;SDS011;68889;48.232;10.110;2024-01-07T07:43:18;19.38;;;11.80;;
79438;SDS011;68889;48.232;10.110;2024-01-07T07:45:46;17.50;;;10.73;;
79438;SDS011;68889;48.232;10.110;2024-01-07T07:48:16;18.13;;;11.15;;
79438;SDS011;68889;48.232;10.110;2024-01-07T07:50:42;21.77;;;12.27;;
79438;SDS011;68889;48.232;10.110;2024-01-07T07:53:08;18.90;;;11.57;;
79438;SDS011;68889;48.232;10.110;2024-01-07T07:55:34;15.88;;;10.55;;
79438;SDS011;68889;48.232;10.110;2024-01-07T07:58:00;17.85;;;11.38;;
79438;SDS011;68889;48.232;10.110;2024-01-07T08:00:26;20.25;;;12.90;;
79438;SDS011;68889;48.232;10.110;2024-01-07T08:02:52;18.17;;;12.18;;
79438;SDS011;68889;48.232;10.110;2024-01-07T08:05:21;19.85;;;12.82;;
79438;SDS011;68889;48.232;10.110;2024-01-07T08:07:46;17.27;;;11.45;;
79438;SDS011;68889;48.232;10.110;2024-01-07T08:10:12;16.17;;;10.32;;
79438;SDS011;68889;48.232;10.110;2024-01-07T08:12:38;19.25;;;11.70;;
79438;SDS011;68889;48.232;10.110;2024-01-07T08:15:05;18.48;;;11.63;;
79438;SDS011;68889;48.232;10.110;2024-01-07T08:17:32;19.27;;;12.85;;
79438;SDS011;68889;48.232;10.110;2024-01-07T08:19:58;18.50;;;12.77;;
79438;SDS011;68889;48.232;10.110;2024-01-07T08:22:23;18.30;;;11.25;;
79438;SDS011;68889;48.232;10.110;2024-01-07T08:24:49;18.83;;;11.80;;
79438;SDS011;68889;48.232;10.110;2024-01-07T08:27:15;18.35;;;11.15;;
79438;SDS011;68889;48.232;10.110;2024-01-07T08:29:44;16.10;;;10.40;;
79438;SDS011;68889;48.232;10.110;2024-01-07T08:32:15;16.98;;;11.25;;
79438;SDS011;68889;48.232;10.110;2024-01-07T08:34:44;16.95;;;10.63;;
79438;SDS011;68889;48.232;10.110;2024-01-07T08:37:13;18.60;;;10.93;;
79438;SDS011;68889;48.232;10.110;2024-01-07T08:39:38;14.88;;;9.07;;
79438;SDS011;68889;48.232;10.110;2024-01-07T08:42:06;17.35;;;10.57;;
79438;SDS011;68889;48.232;10.110;2024-01-07T08:44:32;15.40;;;9.35;;
79438;SDS011;68889;48.232;10.110;2024-01-07T08:46:58;16.20;;;9.13;;
79438;SDS011;68889;48.232;10.110;2024-01-07T08:49:29;14.40;;;9.90;;
79438;SDS011;68889;48.232;10.110;2024-01-07T08:52:01;15.45;;;10.07;;
79438;SDS011;68889;48.232;10.110;2024-01-07T08:54:27;14.13;;;9.55;;
79438;SDS011;68889;48.232;10.110;2024-01-07T08:56:54;16.02;;;10.00;;
79438;SDS011;68889;48.232;10.110;2024-01-07T08:59:22;13.63;;;8.65;;
79438;SDS011;68889;48.232;10.110;2024-01-07T09:01:48;13.18;;;8.98;;
79438;SDS011;68889;48.232;10.110;2024-01-07T09:04:14;15.15;;;8.07;;
79438;SDS011;68889;48.232;10.110;2024-01-07T09:06:44;12.83;;;7.73;;
79438;SDS011;68889;48.232;10.110;2024-01-07T09:15:10;12.43;;;8.35;;
79438;SDS011;68889;48.232;10.110;2024-01-07T09:17:39;14.90;;;9.43;;
79438;SDS011;68889;48.232;10.110;2024-01-07T09:20:05;13.30;;;8.75;;
79438;SDS011;68889;48.232;10.110;2024-01-07T09:22:39;13.70;;;8.65;;
79438;SDS011;68889;48.232;10.110;2024-01-07T09:25:05;12.77;;;8.93;;
79438;SDS011;68889;48.232;10.110;2024-01-07T09:27:33;13.48;;;8.27;;
79438;SDS011;68889;48.232;10.110;2024-01-07T09:30:03;15.27;;;9.90;;
79438;SDS011;68889;48.232;10.110;2024-01-07T09:32:29;15.40;;;9.23;;
79438;SDS011;68889;48.232;10.110;2024-01-07T09:34:55;13.63;;;9.57;;
79438;SDS011;68889;48.232;10.110;2024-01-07T09:37:22;16.83;;;9.57;;
79438;SDS011;68889;48.232;10.110;2024-01-07T09:39:48;12.15;;;8.25;;
79438;SDS011;68889;48.232;10.110;2024-01-07T09:42:18;14.85;;;9.38;;
79438;SDS011;68889;48.232;10.110;2024-01-07T09:44:44;14.25;;;8.60;;
79438;SDS011;68889;48.232;10.110;2024-01-07T09:47:15;13.55;;;8.63;;
79438;SDS011;68889;48.232;10.110;2024-01-07T09:49:41;13.80;;;9.00;;
79438;SDS011;68889;48.232;10.110;2024-01-07T09:52:08;13.73;;;9.27;;
79438;SDS011;68889;48.232;10.110;2024-01-07T09:54:38;14.57;;;9.05;;
79438;SDS011;68889;48.232;10.110;2024-01-07T09:57:05;13.30;;;8.52;;
79438;SDS011;68889;48.232;10.110;2024-01-07T09:59:32;13.18;;;8.48;;
79438;SDS011;68889;48.232;10.110;2024-01-07T10:01:59;12.73;;;7.68;;
79438;SDS011;68889;48.232;10.110;2024-01-07T10:04:25;13.68;;;8.30;;
79438;SDS011;68889;48.232;10.110;2024-01-07T10:06:52;13.57;;;8.45;;
79438;SDS011;68889;48.232;10.110;2024-01-07T10:09:19;10.82;;;6.95;;
79438;SDS011;68889;48.232;10.110;2024-01-07T10:11:48;12.40;;;8.15;;
79438;SDS011;68889;48.232;10.110;2024-01-07T10:14:14;12.32;;;7.72;;
79438;SDS011;68889;48.232;10.110;2024-01-07T10:16:42;12.85;;;7.43;;
79438;SDS011;68889;48.232;10.110;2024-01-07T10:19:07;12.20;;;7.45;;
79438;SDS011;68889;48.232;10.110;2024-01-07T10:21:36;11.82;;;7.55;;
79438;SDS011;68889;48.232;10.110;2024-01-07T10:24:11;10.88;;;7.80;;
79438;SDS011;68889;48.232;10.110;2024-01-07T10:26:37;11.13;;;7.22;;
79438;SDS011;68889;48.232;10.110;2024-01-07T10:29:05;12.90;;;7.55;;
79438;SDS011;68889;48.232;10.110;2024-01-07T10:31:37;10.70;;;6.63;;
79438;SDS011;68889;48.232;10.110;2024-01-07T10:34:07;10.68;;;6.95;;
79438;SDS011;68889;48.232;10.110;2024-01-07T10:36:34;12.60;;;6.95;;
79438;SDS011;68889;48.232;10.110;2024-01-07T10:39:00;12.25;;;6.97;;
79438;SDS011;68889;48.232;10.110;2024-01-07T10:41:29;12.05;;;7.30;;
79438;SDS011;68889;48.232;10.110;2024-01-07T10:43:57;12.23;;;6.90;;
79438;SDS011;68889;48.232;10.110;2024-01-07T10:46:24;11.18;;;7.00;;
79438;SDS011;68889;48.232;10.110;2024-01-07T10:48:55;10.88;;;7.07;;
79438;SDS011;68889;48.232;10.110;2024-01-07T10:51:28;12.63;;;6.85;;
79438;SDS011;68889;48.232;10.110;2024-01-07T10:53:56;12.30;;;7.43;;
79438;SDS011;68889;48.232;10.110;2024-01-07T10:56:28;10.35;;;6.30;;
79438;SDS011;68889;48.232;10.110;2024-01-07T10:59:03;11.40;;;7.10;;
79438;SDS011;68889;48.232;10.110;2024-01-07T11:01:29;10.95;;;6.35;;
79438;SDS011;68889;48.232;10.110;2024-01-07T11:04:17;11.93;;;6.57;;
79438;SDS011;68889;48.232;10.110;2024-01-07T11:07:18;9.93;;;6.38;;
79438;SDS011;68889;48.232;10.110;2024-01-07T11:12:16;11.93;;;7.07;;
79438;SDS011;68889;48.232;10.110;2024-01-07T11:14:45;13.20;;;7.90;;
79438;SDS011;68889;48.232;10.110;2024-01-07T11:18:02;11.13;;;6.32;;
79438;SDS011;68889;48.232;10.110;2024-01-07T11:30:03;12.38;;;6.88;;
79438;SDS011;68889;48.232;10.110;2024-01-07T11:32:44;13.80;;;7.53;;
79438;SDS011;68889;48.232;10.110;2024-01-07T11:35:12;14.27;;;7.63;;
79438;SDS011;68889;48.232;10.110;2024-01-07T11:37:38;10.07;;;6.82;;
79438;SDS011;68889;48.232;10.110;2024-01-07T11:40:05;11.80;;;6.18;;
79438;SDS011;68889;48.232;10.110;2024-01-07T11:42:32;14.27;;;7.68;;
79438;SDS011;68889;48.232;10.110;2024-01-07T11:44:58;13.07;;;7.43;;
79438;SDS011;68889;48.232;10.110;2024-01-07T11:47:24;11.63;;;7.57;;
79438;SDS011;68889;48.232;10.110;2024-01-07T11:49:58;12.32;;;7.35;;
79438;SDS011;68889;48.232;10.110;2024-01-07T11:52:25;11.70;;;7.25;;
79438;SDS011;68889;48.232;10.110;2024-01-07T11:54:55;12.43;;;6.93;;
79438;SDS011;68889;48.232;10.110;2024-01-07T11:57:26;11.52;;;6.60;;
79438;SDS011;68889;48.232;10.110;2024-01-07T11:59:52;11.82;;;7.28;;
79438;SDS011;68889;48.232;10.110;2024-01-07T12:02:19;12.13;;;7.07;;
79438;SDS011;68889;48.232;10.110;2024-01-07T12:04:48;12.50;;;7.22;;
79438;SDS011;68889;48.232;10.110;2024-01-07T12:07:21;13.98;;;7.70;;
79438;SDS011;68889;48.232;10.110;2024-01-07T12:09:54;11.55;;;6.60;;
79438;SDS011;68889;48.232;10.110;2024-01-07T12:12:21;13.60;;;7.78;;
79438;SDS011;68889;48.232;10.110;2024-01-07T12:14:51;13.95;;;7.97;;
79438;SDS011;68889;48.232;10.110;2024-01-07T12:17:17;13.77;;;7.20;;
79438;SDS011;68889;48.232;10.110;2024-01-07T12:19:43;14.00;;;7.22;;
79438;SDS011;68889;48.232;10.110;2024-01-07T12:22:09;12.95;;;6.80;;
79438;SDS011;68889;48.232;10.110;2024-01-07T12:24:35;12.77;;;8.07;;
79438;SDS011;68889;48.232;10.110;2024-01-07T12:27:07;14.75;;;8.85;;
79438;SDS011;68889;48.232;10.110;2024-01-07T12:29:33;13.13;;;7.68;;
79438;SDS011;68889;48.232;10.110;2024-01-07T12:31:59;13.70;;;8.45;;
79438;SDS011;68889;48.232;10.110;2024-01-07T12:34:27;12.77;;;7.22;;
79438;SDS011;68889;48.232;10.110;2024-01-07T12:37:01;14.13;;;7.38;;
79438;SDS011;68889;48.232;10.110;2024-01-07T12:39:30;14.20;;;8.10;;
79438;SDS011;68889;48.232;10.110;2024-01-07T12:42:00;13.65;;;8.60;;
79438;SDS011;68889;48.232;10.110;2024-01-07T12:47:05;15.10;;;8.68;;
79438;SDS011;68889;48.232;10.110;2024-01-07T12:54:44;13.52;;;7.75;;
79438;SDS011;68889;48.232;10.110;2024-01-07T12:57:10;15.90;;;8.45;;
79438;SDS011;68889;48.232;10.110;2024-01-07T12:59:36;15.10;;;9.05;;
79438;SDS011;68889;48.232;10.110;2024-01-07T13:02:02;12.75;;;7.53;;
79438;SDS011;68889;48.232;10.110;2024-01-07T13:04:28;15.63;;;9.20;;
79438;SDS011;68889;48.232;10.110;2024-01-07T13:06:53;16.95;;;9.07;;
79438;SDS011;68889;48.232;10.110;2024-01-07T13:09:19;14.88;;;8.50;;
79438;SDS011;68889;48.232;10.110;2024-01-07T13:11:45;13.85;;;8.73;;
79438;SDS011;68889;48.232;10.110;2024-01-07T13:14:11;15.38;;;8.23;;
79438;SDS011;68889;48.232;10.110;2024-01-07T13:16:37;14.55;;;8.60;;
79438;SDS011;68889;48.232;10.110;2024-01-07T13:19:03;16.48;;;8.65;;
79438;SDS011;68889;48.232;10.110;2024-01-07T13:21:29;15.40;;;9.27;;
79438;SDS011;68889;48.232;10.110;2024-01-07T13:23:55;14.70;;;8.88;;
79438;SDS011;68889;48.232;10.110;2024-01-07T13:26:22;12.90;;;8.18;;
79438;SDS011;68889;48.232;10.110;2024-01-07T13:28:48;16.58;;;9.18;;
79438;SDS011;68889;48.232;10.110;2024-01-07T13:31:17;17.73;;;9.23;;
79438;SDS011;68889;48.232;10.110;2024-01-07T13:33:43;15.93;;;8.80;;
79438;SDS011;68889;48.232;10.110;2024-01-07T13:36:14;15.18;;;9.43;;
79438;SDS011;68889;48.232;10.110;2024-01-07T13:38:41;17.23;;;9.07;;
79438;SDS011;68889;48.232;10.110;2024-01-07T13:41:11;15.88;;;9.63;;
79438;SDS011;68889;48.232;10.110;2024-01-07T13:43:40;14.75;;;8.90;;
79438;SDS011;68889;48.232;10.110;2024-01-07T13:54:29;17.15;;;9.32;;
79438;SDS011;68889;48.232;10.110;2024-01-07T13:57:33;14.82;;;9.10;;
79438;SDS011;68889;48.232;10.110;2024-01-07T14:00:05;16.45;;;9.25;;
79438;SDS011;68889;48.232;10.110;2024-01-07T14:05:37;13.68;;;8.30;;
79438;SDS011;68889;48.232;10.110;2024-01-07T14:08:04;17.30;;;9.85;;
79438;SDS011;68889;48.232;10.110;2024-01-07T14:10:33;15.18;;;8.98;;
79438;SDS011;68889;48.232;10.110;2024-01-07T14:13:07;15.27;;;10.20;;
79438;SDS011;68889;48.232;10.110;2024-01-07T14:15:47;13.50;;;8.63;;
79438;SDS011;68889;48.232;10.110;2024-01-07T14:18:22;15.77;;;9.07;;
79438;SDS011;68889;48.232;10.110;2024-01-07T14:20:54;15.15;;;9.05;;
79438;SDS011;68889;48.232;10.110;2024-01-07T14:23:23;15.65;;;9.57;;
79438;SDS011;68889;48.232;10.110;2024-01-07T14:28:39;14.48;;;9.18;;
79438;SDS011;68889;48.232;10.110;2024-01-07T14:31:18;16.48;;;9.60;;
79438;SDS011;68889;48.232;10.110;2024-01-07T14:33:44;14.52;;;8.50;;
79438;SDS011;68889;48.232;10.110;2024-01-07T14:36:10;14.15;;;8.48;;
79438;SDS011;68889;48.232;10.110;2024-01-07T14:38:44;16.90;;;8.98;;
79438;SDS011;68889;48.232;10.110;2024-01-07T14:41:17;17.63;;;10.30;;
79438;SDS011;68889;48.232;10.110;2024-01-07T14:43:44;13.90;;;8.73;;
79438;SDS011;68889;48.232;10.110;2024-01-07T14:48:51;12.95;;;8.48;;
79438;SDS011;68889;48.232;10.110;2024-01-07T14:51:45;16.23;;;8.52;;
79438;SDS011;68889;48.232;10.110;2024-01-07T14:54:36;15.23;;;9.27;;
79438;SDS011;68889;48.232;10.110;2024-01-07T14:57:05;15.52;;;8.65;;
79438;SDS011;68889;48.232;10.110;2024-01-07T14:59:43;15.40;;;8.93;;
79438;SDS011;68889;48.232;10.110;2024-01-07T15:02:26;17.02;;;9.38;;
79438;SDS011;68889;48.232;10.110;2024-01-07T15:05:13;16.80;;;9.15;;
79438;SDS011;68889;48.232;10.110;2024-01-07T15:07:45;16.98;;;9.80;;
79438;SDS011;68889;48.232;10.110;2024-01-07T15:12:44;15.90;;;9.73;;
79438;SDS011;68889;48.232;10.110;2024-01-07T15:15:12;15.32;;;8.90;;
79438;SDS011;68889;48.232;10.110;2024-01-07T15:17:46;16.85;;;9.77;;
79438;SDS011;68889;48.232;10.110;2024-01-07T15:20:12;15.98;;;9.52;;